Alicia, AR (72410)

7:55 AM CST on February 22, 2017 (GMT -0600)
Bono | | Change Station

Elev 333 ft 35.87 °N, 90.77 °W | Updated 26 seconds ago

Overcast
Overcast
59.2 °F
Feels Like 59.2 °F
N
0.0
Wind Variable Wind from North

Today
High -- | Low -- °F
--% Chance of Precip.
Yesterday
High -- | Low -- °F
Precip. -- in
Pressure 29.91 in
Visibility 2.5 miles
Clouds Overcast 400 ft
Dew Point 57 °F
Humidity 95%
Rainfall Not available.
Snow Depth Not available.
6:42 AM 5:53 PM
Waning Crescent, 17% visible
METAR KM19 221256Z AUTO 33005KT 2 1/2SM BR OVC004 14/14 A2990 RMK AO2 SLP129 T01390139
Pressure 29.91 in
Visibility 2.5 miles
Clouds Overcast 400 ft
Dew Point 57 °F
Humidity 95%
Rainfall Not available.
Snow Depth Not available.
6:42 AM 5:53 PM
Waning Crescent, 17% visible
METAR KM19 221256Z AUTO 33005KT 2 1/2SM BR OVC004 14/14 A2990 RMK AO2 SLP129 T01390139

Get Your Daily Forecast Email!

Thanks for signing up!

Be on the lookout for a verification email in your inbox.

You'll start receiving the daily forecast at 8 AM.

×

10-Day Weather Forecast

Almanac

Astronomy

Feb. 22, 2017 Rise Set
Actual Time
Civil Twilight
Nautical Twilight
Astronomical Twilight
Moon
Length of Visible Light
Length of Day
Tomorrow will be .
, % of the Moon is Illuminated

Today's Extremes

State Highs State Lows

Community

WunderPhotos

Upload Photos

1,962,540 photos uploaded!

WunderBlog® & News

Nearby

Air Quality

  Air Quality AQ Index Pollutant
Not available.

Snow Depth

Station Depth Elevation

Earthquake Activity

City Distance Mag. Time & Date
Minimum magnitude displayed is 2.5.

Coastal Water Temperatures

Place Temperature

Stations

Nearby Weather Stations

Station Location Temp. Windchill Dew Point Humidity Wind Precip. Elev Updated Type
                   

Watches & Warnings

There are currently no watches in effect.